Brockton, Montana
Current Conditions -  °F | °C
As of 1:53 PM on Tuesday 21 Oct 2014 (Local Time) from KOLF Reporting Station
Clear Clear  
Wind Chill: 72°   Ceiling: Unl
Heat Index: 72°   Visibility: 10mi
Dew Point: 47°   Wind: 3mph
Humidity: 41%   Direction: NA
Pressure: 29.58"   Gusts: NA
Location:  48.15°N, 104.92°W
Report Text: KOLF 211953Z AUTO VRB03KT 10SM CLR 22/08 A2958 RMK AO2 SLP016 T02220083
Loading
Personal Weather Stations






























Interactive Weather Map
Tropical Storm Tracking
New forecast layout! Learn more

10-Day Weather Forecast

Advertisements
Track Severe Weather on mobile